Terminal Aerodrome Forecast
Issued by NWS Charleston, WV

Home | Current Version | Previous Version | Text Only | Print | Product List | Glossary On
Versions: 1 2 3 4 5 6 7 8 9 10 11 12 13 14 15 16 17 18 19 20 21 22 23 24 25 26 27 28 29 30 31 32
000
FTUS41 KRLX 032035 AAA
TAFHTS
TAF AMD
KHTS 032035Z 0321/0418 16004KT P6SM VCTS SCT020 OVC040CB
      TEMPO 0322/0324 3SM SHRA BKN020
     FM040000 24004KT P6SM BKN018
     FM040700 25005KT 5SM BR OVC007
     FM041200 00000KT P6SM BKN012
     FM041500 00000KT P6SM SCT035=

USA.gov is the U.S. government's official web portal to all federal, state and local government web resources and services.